Предлагаем Вашему вниманию английскую версию страницы: AUTOTAF.ME 37959 - aviation weather forecast Kapan

AUTOTAF 37959 - авиапрогноз Капан

Сегодня рассвет 03:38 UTC, восход солнца 04:06 UTC,
местный полдень 09:06 UTC, заход солнца 14:06 UTC,
наступление темноты 14:35 UTC.

Краткий прогноз 37959 на 9 часов

AUTOTAF.ME 37959 251700Z 2521/2606 25006MPS CAVOK

Детальный прогноз 37959 на 24 часа

AUTOTAF.ME 37959 251700Z 2521/2621 25006MPS 9999 SKC TX02/2609Z TNM02/2521Z

Подробный табличный прогноз

Время (UTC) miniAUTOTAF на 3 ч WX FZLVL
M AGL
ICE TURB Т
(°С)
Тd
(°С)
f(%) QNH
(гПа)
WIND/T
15 25005MPS 9999 SKC 60 -2 -6 69 1023 ...
21 25006MPS 9999 SKC SFC -2 -8 65 1024 ...
26.01.2021
00 25006MPS 9999 FEW260 SFC -2 -8 66 1023 ...
03 25006MPS 9999 SCT190 SFC -2 -8 67 1024 ...
06 24006MPS 9999 BKN180 810 MOD FL190/FL200 -1 -6 69 1023 ...
09 24006MPS 9999 OVC164 1050 MOD FL190/FL200 MOD FL170/FL180 2 -2 72 1022 ...
12 24006MPS 9999 BKN180 1050 2 -2 75 1021 ...
15 25006MPS 9999 SKC 810 -1 -5 74 1023 ...
18 25006MPS 9999 SKC 810 -1 -5 75 1023 ...
21 25006MPS 9999 SKC 630 -1 -5 75 1024 ...
27.01.2021
00 25006MPS 9999 SKC 630 -1 -5 75 1023 ...
03 25006MPS 9999 SKC 60 -0 -5 74 1023 ...
06 24006MPS 9999 FEW230 1050 1 -4 70 1022 ...
09 24005MPS 9999 SCT190 2250 5 -1 68 1020 ...
12 24005MPS 9999 FEW190 2400 4 -1 72 1017 ...
15 25006MPS 9999 OVC210 2400 1 -5 69 1018 ...


Широта 39.2°, долгота 46.4°, высота 704 м абс.
Средняя высота рельефа местности 1105 м абс.
Прогнозы обновляются четыре раза в сутки: в 02, 08, 14, 20 ч всемирного времени.


Выбрать прогноз по другой модели Капан
Онлайн-сводка гроз по Капан (для РФ и ближнего зарубежья)
Карта фактических гроз в окрестностях Капан
Динамические прогностические карты (ventusky.com)
Прогностическая карта высоты нижней границы облаков по Капан (windy.com)
Выбрать другой город

Прогноз предназначен для личного научно-познавательного использования частными лицами
и не предназначен для принятия важных решений и выполнения реальных полётов воздушных судов

При копировании или ином использовании любых материалов данного сайта ссылка на © meteocenter.asia обязательна.

0.71/5.5